Time;durP1;ratioP1;P1;durP2;ratioP2;P2;SDS_P1;SDS_P2;PMS_P1;PMS_P2;Temp;Humidity;BMP_temperature;BMP_pressure;BME280_temperature;BME280_humidity;BME280_pressure;Samples;Min_cycle;Max_cycle;Signal;HPM_P1;HPM_P2
2021/08/22 00:00:23;;;;;;;3.28;2.10;;;22.10;70.80;;;;;;1082883;54;20037;-69
2021/08/22 00:01:44;;;;;;;2.20;2.00;;;22.10;71.00;;;;;;1082392;54;20149;-69
2021/08/22 00:03:05;;;;;;;2.63;1.88;;;22.10;71.10;;;;;;1082149;54;20022;-69
2021/08/22 00:04:26;;;;;;;3.83;2.30;;;22.10;71.10;;;;;;1082796;39;20415;-69
2021/08/22 00:05:47;;;;;;;2.50;2.30;;;22.10;71.30;;;;;;1083005;54;20152;-69
2021/08/22 00:07:07;;;;;;;3.88;1.92;;;22.00;71.30;;;;;;1082749;54;20034;-69
2021/08/22 00:08:28;;;;;;;2.97;2.10;;;22.00;71.60;;;;;;1082607;54;20022;-69
2021/08/22 00:09:49;;;;;;;2.65;1.95;;;22.00;71.60;;;;;;1082622;54;20027;-69
2021/08/22 00:11:12;;;;;;;2.40;2.20;;;22.00;71.70;;;;;;1082502;54;20023;-69
2021/08/22 00:12:33;;;;;;;1.75;1.48;;;22.00;71.80;;;;;;1082221;54;20035;-69
2021/08/22 00:13:53;;;;;;;1.90;1.80;;;22.00;71.90;;;;;;1082408;54;20030;-69
2021/08/22 00:15:15;;;;;;;1.92;1.77;;;22.00;72.00;;;;;;1082298;54;20029;-69
2021/08/22 00:16:36;;;;;;;1.83;1.73;;;22.00;71.80;;;;;;1082608;54;20034;-70
2021/08/22 00:17:56;;;;;;;5.32;2.13;;;22.00;71.80;;;;;;1082510;54;20037;-70
2021/08/22 00:19:17;;;;;;;2.00;1.80;;;22.00;71.80;;;;;;1082611;54;20532;-70
2021/08/22 00:20:38;;;;;;;2.05;1.85;;;22.00;71.80;;;;;;1082084;54;20030;-70
2021/08/22 00:21:59;;;;;;;4.95;1.67;;;22.00;71.90;;;;;;1082127;47;20042;-69
2021/08/22 00:23:20;;;;;;;1.80;1.70;;;22.00;71.90;;;;;;1082446;54;20813;-70
2021/08/22 00:24:42;;;;;;;2.13;1.92;;;21.90;71.90;;;;;;1082017;54;20684;-70
2021/08/22 00:26:03;;;;;;;2.30;2.10;;;22.00;72.10;;;;;;1082216;54;20046;-70
2021/08/22 00:27:23;;;;;;;1.70;1.60;;;21.90;71.80;;;;;;1082843;54;20038;-70
2021/08/22 00:28:44;;;;;;;2.05;1.73;;;21.90;71.60;;;;;;1082691;54;20028;-70
2021/08/22 00:30:06;;;;;;;2.20;2.00;;;21.90;71.70;;;;;;1082916;39;20871;-70
2021/08/22 00:31:27;;;;;;;1.85;1.67;;;21.90;71.60;;;;;;1081935;54;20034;-70
2021/08/22 00:32:48;;;;;;;1.90;1.80;;;21.90;71.30;;;;;;1082425;54;20057;-70
2021/08/22 00:34:09;;;;;;;2.20;2.00;;;21.80;71.30;;;;;;1082170;54;20042;-69
2021/08/22 00:35:30;;;;;;;1.75;1.65;;;21.80;71.30;;;;;;1082590;54;20031;-70
2021/08/22 00:36:51;;;;;;;2.42;2.10;;;21.80;71.40;;;;;;1082331;54;20037;-70
2021/08/22 00:38:12;;;;;;;1.80;1.70;;;21.80;71.40;;;;;;1082656;54;20027;-70
2021/08/22 00:39:32;;;;;;;2.10;1.90;;;21.70;71.50;;;;;;1082218;54;20030;-70
2021/08/22 00:40:54;;;;;;;1.83;1.65;;;21.70;71.60;;;;;;1082274;54;20022;-70
2021/08/22 00:42:15;;;;;;;4.22;1.92;;;21.70;71.50;;;;;;1082712;54;20031;-70
2021/08/22 00:43:35;;;;;;;2.33;1.92;;;21.70;71.60;;;;;;1082331;54;20042;-70
2021/08/22 00:44:56;;;;;;;2.88;1.90;;;21.70;71.80;;;;;;1082642;54;20046;-70
2021/08/22 00:46:18;;;;;;;3.55;2.20;;;21.70;71.80;;;;;;1082269;54;20027;-70
2021/08/22 00:47:43;;;;;;;2.78;1.60;;;21.70;71.80;;;;;;1082651;54;20034;-69
2021/08/22 00:49:05;;;;;;;2.72;1.92;;;21.60;72.30;;;;;;1082927;54;20023;-70
2021/08/22 00:50:26;;;;;;;4.35;2.13;;;21.60;72.10;;;;;;1082562;54;20038;-69
2021/08/22 00:51:47;;;;;;;2.35;2.15;;;21.60;72.10;;;;;;1082248;54;20030;-70
2021/08/22 00:53:07;;;;;;;2.85;2.33;;;21.60;72.20;;;;;;1082378;54;20061;-69
2021/08/22 00:54:28;;;;;;;2.67;2.25;;;21.60;72.20;;;;;;1082761;54;20030;-69
2021/08/22 00:55:51;;;;;;;3.33;2.45;;;21.60;72.30;;;;;;1082367;54;20027;-68
2021/08/22 00:57:14;;;;;;;2.60;2.38;;;21.50;72.20;;;;;;1082484;54;20034;-69
2021/08/22 00:58:35;;;;;;;3.88;2.35;;;21.50;72.30;;;;;;1082645;54;20019;-70
2021/08/22 01:00:08;;;;;;;2.65;2.45;;;21.50;72.10;;;;;;1082905;54;20035;-68
2021/08/22 01:01:30;;;;;;;3.40;2.35;;;21.50;72.50;;;;;;1083023;39;20487;-69
2021/08/22 01:03:19;;;;;;;3.42;2.88;;;21.50;72.60;;;;;;1082077;54;20031;-68
2021/08/22 01:04:56;;;;;;;4.22;2.90;;;21.50;73.30;;;;;;1082665;54;20340;-69
2021/08/22 01:06:41;;;;;;;3.38;3.08;;;21.50;73.00;;;;;;1082308;54;20074;-70
2021/08/22 01:08:30;;;;;;;3.05;2.78;;;21.50;73.00;;;;;;1082487;54;20030;-70
2021/08/22 01:09:52;;;;;;;2.80;2.60;;;21.50;72.70;;;;;;1082325;54;20015;-69
2021/08/22 01:11:20;;;;;;;3.50;2.72;;;21.40;72.20;;;;;;1082159;47;20104;-69
2021/08/22 01:12:46;;;;;;;2.90;2.70;;;21.50;72.90;;;;;;1082342;54;20042;-69
2021/08/22 01:14:16;;;;;;;2.70;2.50;;;21.40;72.70;;;;;;1082614;54;20034;-70
2021/08/22 01:15:44;;;;;;;3.17;2.95;;;21.40;73.20;;;;;;1082441;54;20499;-70
2021/08/22 01:17:07;;;;;;;4.60;2.85;;;21.40;73.00;;;;;;1081862;54;20046;-70
2021/08/22 01:18:29;;;;;;;4.88;2.97;;;21.40;73.00;;;;;;1082496;54;20149;-69
2021/08/22 01:19:57;;;;;;;2.92;2.67;;;21.40;72.80;;;;;;1083037;54;20042;-69
2021/08/22 01:21:20;;;;;;;4.07;3.00;;;21.40;73.30;;;;;;1082590;54;20042;-69
2021/08/22 01:22:43;;;;;;;2.70;2.50;;;21.40;73.10;;;;;;1082041;54;20521;-69
2021/08/22 01:24:04;;;;;;;2.78;2.58;;;21.40;73.50;;;;;;1082541;47;20045;-69
2021/08/22 01:25:26;;;;;;;4.05;2.80;;;21.40;73.60;;;;;;1082663;39;20396;-69
2021/08/22 01:26:47;;;;;;;2.83;2.50;;;21.40;73.70;;;;;;1082847;39;20441;-69
2021/08/22 01:28:09;;;;;;;3.42;2.90;;;21.40;73.80;;;;;;1082420;54;20030;-69
2021/08/22 01:29:37;;;;;;;2.67;2.15;;;21.40;73.90;;;;;;1082437;39;20451;-69
2021/08/22 01:31:04;;;;;;;5.20;3.15;;;21.40;74.00;;;;;;1082580;54;20121;-69
2021/08/22 01:32:34;;;;;;;4.07;3.00;;;21.40;74.10;;;;;;1082746;54;20110;-69
2021/08/22 01:33:56;;;;;;;;;;;21.40;74.20;;;;;;1082742;54;20014;-70
2021/08/22 01:35:20;;;;;;;2.80;2.42;;;21.40;73.90;;;;;;1082384;54;19939;-70
2021/08/22 01:36:41;;;;;;;4.93;2.90;;;21.40;73.40;;;;;;1082737;39;20430;-68
2021/08/22 01:38:03;;;;;;;2.50;2.10;;;21.40;73.60;;;;;;1082723;54;20114;-69
2021/08/22 01:39:24;;;;;;;2.75;2.53;;;21.40;73.70;;;;;;1082297;54;20489;-68
2021/08/22 01:40:46;;;;;;;4.35;3.17;;;21.50;73.80;;;;;;1082125;54;20099;-68
2021/08/22 01:42:09;;;;;;;4.18;3.22;;;21.40;74.10;;;;;;1082381;54;20039;-69
2021/08/22 01:43:32;;;;;;;3.60;3.03;;;21.40;74.40;;;;;;1082543;54;20034;-69
2021/08/22 01:44:54;;;;;;;3.75;3.35;;;21.40;74.70;;;;;;1082430;54;20034;-68
2021/08/22 01:46:15;;;;;;;3.80;3.33;;;21.40;74.80;;;;;;1082247;54;20489;-69
2021/08/22 01:47:39;;;;;;;4.35;3.65;;;21.40;74.90;;;;;;1082588;54;20052;-69
2021/08/22 01:49:03;;;;;;;3.72;3.35;;;21.40;75.00;;;;;;1082794;54;20027;-69
2021/08/22 01:50:25;;;;;;;4.22;3.80;;;21.50;75.20;;;;;;1082504;54;20041;-69
2021/08/22 01:51:46;;;;;;;4.72;3.88;;;21.50;75.10;;;;;;1082149;54;20509;-69
2021/08/22 01:53:08;;;;;;;4.82;4.32;;;21.50;75.30;;;;;;1082242;54;20600;-69
2021/08/22 01:54:29;;;;;;;4.13;3.72;;;21.50;75.50;;;;;;1082275;54;20034;-69
2021/08/22 01:55:53;;;;;;;4.72;4.25;;;21.50;75.60;;;;;;1082466;54;20023;-69
2021/08/22 01:57:14;;;;;;;5.05;4.55;;;21.50;75.90;;;;;;1082233;54;20157;-69
2021/08/22 01:58:35;;;;;;;5.07;4.55;;;21.50;75.90;;;;;;1082109;47;20552;-69
2021/08/22 01:59:56;;;;;;;5.80;5.03;;;21.50;76.10;;;;;;1082505;54;20038;-69
2021/08/22 02:01:17;;;;;;;9.60;5.18;;;21.50;76.20;;;;;;1082429;54;20497;-68
2021/08/22 02:02:59;;;;;;;5.93;4.57;;;21.60;76.20;;;;;;1082179;54;20034;-69
2021/08/22 02:04:47;;;;;;;5.78;4.90;;;21.60;76.20;;;;;;1082088;54;20034;-69
2021/08/22 02:06:23;;;;;;;6.13;4.88;;;21.70;76.70;;;;;;1082391;54;20043;-69
2021/08/22 02:07:44;;;;;;;5.22;4.72;;;21.70;76.60;;;;;;1081972;39;20368;-69
2021/08/22 02:09:09;;;;;;;5.53;5.00;;;21.70;75.90;;;;;;1082913;39;20382;-69
2021/08/22 02:10:34;;;;;;;5.55;5.05;;;21.70;76.40;;;;;;1082609;54;20053;-68
2021/08/22 02:12:01;;;;;;;6.20;4.63;;;21.60;76.40;;;;;;1082977;39;20384;-69
2021/08/22 02:13:26;;;;;;;6.32;4.75;;;21.70;76.60;;;;;;1082547;39;20373;-69
2021/08/22 02:15:11;;;;;;;5.35;4.85;;;21.70;76.40;;;;;;1081762;54;20091;-69
2021/08/22 02:16:33;;;;;;;6.13;4.30;;;21.70;77.20;;;;;;1082357;54;20030;-69
2021/08/22 02:18:02;;;;;;;5.95;5.35;;;21.70;76.30;;;;;;1082844;54;20095;-69
2021/08/22 02:19:26;;;;;;;5.13;4.63;;;21.80;76.50;;;;;;1082704;54;20034;-68
2021/08/22 02:20:47;;;;;;;6.25;5.35;;;21.70;76.50;;;;;;1082231;54;20030;-68
2021/08/22 02:22:09;;;;;;;6.38;5.10;;;21.70;76.40;;;;;;1082344;54;20022;-69
2021/08/22 02:23:31;;;;;;;5.72;5.22;;;21.70;76.30;;;;;;1082369;54;20035;-68
2021/08/22 02:24:53;;;;;;;6.15;5.55;;;21.70;76.30;;;;;;1082140;54;20026;-69
2021/08/22 02:26:14;;;;;;;5.63;5.13;;;21.80;76.50;;;;;;1083787;31;20522;-69
2021/08/22 02:27:36;;;;;;;5.95;4.90;;;21.80;76.50;;;;;;1082181;54;20075;-69
2021/08/22 02:28:58;;;;;;;5.78;5.20;;;21.70;76.40;;;;;;1083080;39;20374;-69
2021/08/22 02:30:19;;;;;;;8.90;5.47;;;21.70;76.40;;;;;;1082407;54;20046;-68
2021/08/22 02:31:40;;;;;;;7.05;5.57;;;21.80;76.60;;;;;;1082242;54;20106;-68
2021/08/22 02:33:05;;;;;;;6.30;5.70;;;21.80;76.50;;;;;;1082281;54;20042;-68
2021/08/22 02:34:26;;;;;;;5.78;5.28;;;21.80;76.90;;;;;;1082506;54;20175;-69
2021/08/22 02:35:47;;;;;;;6.65;5.90;;;21.80;76.70;;;;;;1082018;54;20043;-69
2021/08/22 02:37:08;;;;;;;7.32;5.05;;;21.80;76.80;;;;;;1082180;54;20023;-68
2021/08/22 02:38:29;;;;;;;8.65;6.43;;;21.80;76.70;;;;;;1082294;54;20023;-70
2021/08/22 02:39:50;;;;;;;6.82;5.97;;;21.80;76.70;;;;;;1082820;54;20601;-69
2021/08/22 02:41:11;;;;;;;5.53;5.03;;;21.80;76.70;;;;;;1082226;54;20116;-69
2021/08/22 02:42:32;;;;;;;6.63;5.43;;;21.80;76.80;;;;;;1081982;54;20023;-69
2021/08/22 02:43:53;;;;;;;6.78;5.28;;;21.80;76.70;;;;;;1082712;39;20446;-69
2021/08/22 02:45:14;;;;;;;6.65;5.72;;;21.80;76.80;;;;;;1082497;54;20043;-69
2021/08/22 02:46:35;;;;;;;6.35;5.60;;;21.80;76.90;;;;;;1082246;54;20063;-69
2021/08/22 02:47:58;;;;;;;6.45;5.80;;;21.80;76.90;;;;;;1083485;54;20022;-70
2021/08/22 02:49:19;;;;;;;6.35;5.65;;;21.80;77.60;;;;;;1083655;54;20038;-69
2021/08/22 02:50:41;;;;;;;6.88;5.82;;;21.80;76.90;;;;;;1083917;54;20030;-70
2021/08/22 02:52:02;;;;;;;7.75;6.55;;;21.80;76.80;;;;;;1084429;54;20124;-70
2021/08/22 02:53:23;;;;;;;6.15;5.55;;;21.80;76.70;;;;;;1082204;54;20038;-70
2021/08/22 02:54:43;;;;;;;6.05;5.43;;;21.80;76.70;;;;;;1082526;54;20041;-69
2021/08/22 02:56:04;;;;;;;7.00;6.28;;;21.80;76.80;;;;;;1082892;54;20022;-69
2021/08/22 02:57:25;;;;;;;7.50;5.93;;;21.80;76.80;;;;;;1082928;54;20533;-70
2021/08/22 02:58:46;;;;;;;6.28;5.60;;;21.80;76.80;;;;;;1082386;54;20035;-69
2021/08/22 03:00:08;;;;;;;6.93;6.22;;;21.80;76.90;;;;;;1082636;54;20086;-69
2021/08/22 03:01:28;;;;;;;5.95;5.40;;;21.80;76.90;;;;;;1082755;54;20086;-69
2021/08/22 03:02:49;;;;;;;6.45;5.85;;;21.80;77.70;;;;;;1082952;54;20066;-69
2021/08/22 03:04:10;;;;;;;6.68;5.97;;;21.70;77.00;;;;;;1082269;54;20035;-69
2021/08/22 03:05:31;;;;;;;6.65;5.82;;;21.70;76.90;;;;;;1082709;54;20015;-69
2021/08/22 03:06:52;;;;;;;6.47;5.80;;;21.80;77.10;;;;;;1082312;54;20034;-69
2021/08/22 03:08:16;;;;;;;6.28;5.68;;;21.80;77.20;;;;;;1082367;54;20146;-69
2021/08/22 03:09:37;;;;;;;6.70;6.00;;;21.80;77.20;;;;;;1082665;54;20042;-69
2021/08/22 03:10:58;;;;;;;6.03;5.40;;;21.80;77.10;;;;;;1083386;39;20389;-69
2021/08/22 03:12:18;;;;;;;6.38;5.40;;;21.80;77.00;;;;;;1083127;39;20073;-69
2021/08/22 03:13:39;;;;;;;6.25;5.65;;;21.80;77.10;;;;;;1082430;54;20503;-69
2021/08/22 03:15:00;;;;;;;7.28;6.38;;;21.70;77.10;;;;;;1082411;54;20038;-69
2021/08/22 03:16:22;;;;;;;6.93;6.22;;;21.80;77.10;;;;;;1082699;54;20178;-69
2021/08/22 03:17:43;;;;;;;6.05;5.40;;;21.70;77.00;;;;;;1083014;54;20027;-69
2021/08/22 03:19:04;;;;;;;6.07;5.47;;;21.80;77.10;;;;;;1082641;39;20451;-69
2021/08/22 03:20:25;;;;;;;9.93;5.57;;;21.70;77.10;;;;;;1082437;54;20054;-70
2021/08/22 03:21:46;;;;;;;6.70;5.50;;;21.70;77.20;;;;;;1082845;54;20062;-69
2021/08/22 03:23:07;;;;;;;7.30;5.90;;;21.70;77.20;;;;;;1082787;54;20022;-69
2021/08/22 03:24:27;;;;;;;7.40;6.18;;;21.80;77.20;;;;;;1082709;54;20030;-69
2021/08/22 03:25:48;;;;;;;6.38;5.78;;;21.70;77.10;;;;;;1082261;54;20065;-69
2021/08/22 03:27:09;;;;;;;7.78;6.35;;;21.70;77.10;;;;;;1082519;54;20051;-69
2021/08/22 03:28:30;;;;;;;6.22;5.63;;;21.70;77.20;;;;;;1082718;54;20034;-69
2021/08/22 03:29:51;;;;;;;7.95;6.07;;;21.70;77.20;;;;;;1082633;54;20054;-69
2021/08/22 03:31:12;;;;;;;6.22;5.60;;;21.70;77.10;;;;;;1082510;54;20038;-69
2021/08/22 03:32:33;;;;;;;6.72;6.18;;;21.70;77.10;;;;;;1082800;54;20042;-69
2021/08/22 03:33:54;;;;;;;6.80;5.57;;;21.70;77.10;;;;;;1082547;47;20505;-69
2021/08/22 03:35:15;;;;;;;6.57;5.93;;;21.70;77.20;;;;;;1082478;54;20105;-69
2021/08/22 03:36:37;;;;;;;7.15;6.28;;;21.70;77.10;;;;;;1082566;54;20056;-69
2021/08/22 03:37:58;;;;;;;6.80;5.97;;;21.70;76.90;;;;;;1082982;54;20047;-69
2021/08/22 03:39:19;;;;;;;6.10;5.60;;;21.70;76.80;;;;;;1082551;54;20030;-69
2021/08/22 03:40:40;;;;;;;6.88;6.28;;;21.80;76.90;;;;;;1082697;54;20157;-69
2021/08/22 03:42:01;;;;;;;7.60;6.28;;;21.70;76.90;;;;;;1082658;54;20125;-70
2021/08/22 03:43:22;;;;;;;6.82;6.15;;;21.70;76.90;;;;;;1082669;54;20129;-69
2021/08/22 03:44:43;;;;;;;6.78;5.90;;;21.70;76.80;;;;;;1082913;39;20321;-70
2021/08/22 03:46:03;;;;;;;7.95;6.63;;;21.70;76.70;;;;;;1082400;54;20041;-69
2021/08/22 03:47:24;;;;;;;7.50;6.80;;;21.70;76.60;;;;;;1082474;54;20040;-69
2021/08/22 03:48:45;;;;;;;7.72;6.45;;;21.70;76.80;;;;;;1082496;47;20071;-69
2021/08/22 03:50:07;;;;;;;7.80;7.00;;;21.60;76.80;;;;;;1082358;54;20034;-70
2021/08/22 03:51:28;;;;;;;7.43;6.65;;;21.70;76.90;;;;;;1082314;54;20031;-69
2021/08/22 03:52:51;;;;;;;7.60;6.82;;;21.70;76.80;;;;;;1082650;54;20034;-70
2021/08/22 03:54:12;;;;;;;7.57;6.53;;;21.60;76.70;;;;;;1082837;54;20137;-69
2021/08/22 03:55:33;;;;;;;8.23;7.03;;;21.60;76.60;;;;;;1082476;54;20026;-70
2021/08/22 03:56:54;;;;;;;7.25;6.55;;;21.60;76.50;;;;;;1082305;54;20083;-69
2021/08/22 03:58:15;;;;;;;10.48;7.00;;;21.60;76.60;;;;;;1082157;54;20109;-69
2021/08/22 03:59:36;;;;;;;7.63;6.82;;;21.60;76.60;;;;;;1082804;54;20030;-70
2021/08/22 04:00:57;;;;;;;8.30;7.20;;;21.60;76.50;;;;;;1082551;54;20482;-69
2021/08/22 04:02:20;;;;;;;10.27;7.63;;;21.60;76.40;;;;;;1082447;54;20502;-70
2021/08/22 04:03:41;;;;;;;9.15;7.45;;;21.60;76.40;;;;;;1082496;54;20022;-69
2021/08/22 04:05:04;;;;;;;9.65;8.02;;;21.70;76.40;;;;;;1082463;39;20377;-69
2021/08/22 04:06:25;;;;;;;9.88;8.30;;;21.60;76.30;;;;;;1082761;54;20033;-69
2021/08/22 04:07:48;;;;;;;9.02;7.55;;;21.60;76.20;;;;;;1082870;39;20481;-69
2021/08/22 04:09:09;;;;;;;11.30;8.07;;;21.60;76.20;;;;;;1082488;54;20038;-69
2021/08/22 04:10:30;;;;;;;10.80;8.55;;;21.60;76.20;;;;;;1082675;47;20030;-69
2021/08/22 04:11:56;;;;;;;10.18;8.10;;;21.60;76.90;;;;;;1082647;54;20041;-69
2021/08/22 04:13:17;;;;;;;12.38;9.00;;;21.60;76.40;;;;;;1082615;54;20023;-69
2021/08/22 04:14:38;;;;;;;11.35;8.73;;;21.60;76.20;;;;;;1082659;54;20030;-70
2021/08/22 04:15:59;;;;;;;12.07;9.48;;;21.60;76.30;;;;;;1082626;54;20122;-69
2021/08/22 04:17:20;;;;;;;11.82;8.95;;;21.60;76.30;;;;;;1083040;39;20688;-69
2021/08/22 04:18:41;;;;;;;10.13;8.70;;;21.50;76.30;;;;;;1081871;54;20042;-69
2021/08/22 04:20:02;;;;;;;11.10;9.32;;;21.60;76.40;;;;;;1082491;54;20166;-69
2021/08/22 04:21:23;;;;;;;14.02;9.85;;;21.60;76.40;;;;;;1083197;39;20350;-70
2021/08/22 04:22:44;;;;;;;14.77;9.38;;;21.60;76.30;;;;;;1082664;54;20138;-69
